sensor_id;sensor_type;location;lat;lon;timestamp;pressure;altitude;pressure_sealevel;temperature;humidity
26823;BME280;14852;51.910;8.878;2022-07-22T00:01:22;100031.19;;;21.94;63.10
26823;BME280;14852;51.910;8.878;2022-07-22T00:03:49;100036.47;;;21.94;63.27
26823;BME280;14852;51.910;8.878;2022-07-22T00:06:15;100038.16;;;21.95;63.13
26823;BME280;14852;51.910;8.878;2022-07-22T00:08:41;100037.16;;;21.96;62.83
26823;BME280;14852;51.910;8.878;2022-07-22T00:11:07;100040.66;;;21.97;63.24
26823;BME280;14852;51.910;8.878;2022-07-22T00:13:32;100032.72;;;21.97;62.98
26823;BME280;14852;51.910;8.878;2022-07-22T00:15:59;100037.91;;;21.98;62.95
26823;BME280;14852;51.910;8.878;2022-07-22T00:18:24;100035.09;;;22.00;63.30
26823;BME280;14852;51.910;8.878;2022-07-22T00:20:50;100038.59;;;22.00;63.33
26823;BME280;14852;51.910;8.878;2022-07-22T00:23:16;100035.09;;;22.00;63.38
26823;BME280;14852;51.910;8.878;2022-07-22T00:25:42;100035.81;;;22.02;62.99
26823;BME280;14852;51.910;8.878;2022-07-22T00:28:08;100038.97;;;22.06;63.41
26823;BME280;14852;51.910;8.878;2022-07-22T00:30:34;100029.34;;;22.04;63.32
26823;BME280;14852;51.910;8.878;2022-07-22T00:33:00;100037.59;;;22.01;63.52
26823;BME280;14852;51.910;8.878;2022-07-22T00:35:25;100034.97;;;22.01;63.53
26823;BME280;14852;51.910;8.878;2022-07-22T00:37:51;100027.88;;;22.02;63.58
26823;BME280;14852;51.910;8.878;2022-07-22T00:40:17;100033.66;;;22.06;63.23
26823;BME280;14852;51.910;8.878;2022-07-22T00:42:43;100028.09;;;22.09;63.54
26823;BME280;14852;51.910;8.878;2022-07-22T00:45:09;100033.09;;;22.12;63.21
26823;BME280;14852;51.910;8.878;2022-07-22T00:47:35;100039.91;;;22.14;63.40
26823;BME280;14852;51.910;8.878;2022-07-22T00:50:02;100033.66;;;22.15;63.01
26823;BME280;14852;51.910;8.878;2022-07-22T00:52:28;100040.97;;;22.21;63.11
26823;BME280;14852;51.910;8.878;2022-07-22T00:54:55;100036.22;;;22.25;63.03
26823;BME280;14852;51.910;8.878;2022-07-22T00:57:21;100033.59;;;22.25;63.17
26823;BME280;14852;51.910;8.878;2022-07-22T00:59:47;100036.22;;;22.25;63.05
26823;BME280;14852;51.910;8.878;2022-07-22T01:02:13;100045.66;;;22.27;63.25
26823;BME280;14852;51.910;8.878;2022-07-22T01:04:39;100038.56;;;22.28;63.41
26823;BME280;14852;51.910;8.878;2022-07-22T01:07:05;100041.91;;;22.30;63.38
26823;BME280;14852;51.910;8.878;2022-07-22T01:09:31;100043.56;;;22.31;63.45
26823;BME280;14852;51.910;8.878;2022-07-22T01:11:57;100044.41;;;22.31;63.07
26823;BME280;14852;51.910;8.878;2022-07-22T01:14:22;100050.00;;;22.28;63.15
26823;BME280;14852;51.910;8.878;2022-07-22T01:16:48;100049.31;;;22.26;63.23
26823;BME280;14852;51.910;8.878;2022-07-22T01:19:14;100054.91;;;22.23;63.47
26823;BME280;14852;51.910;8.878;2022-07-22T01:21:40;100047.41;;;22.19;63.57
26823;BME280;14852;51.910;8.878;2022-07-22T01:24:06;100052.84;;;22.17;63.45
26823;BME280;14852;51.910;8.878;2022-07-22T01:26:32;100052.31;;;22.14;63.26
26823;BME280;14852;51.910;8.878;2022-07-22T01:28:59;100062.34;;;22.10;63.19
26823;BME280;14852;51.910;8.878;2022-07-22T01:31:25;100059.63;;;22.02;63.28
26823;BME280;14852;51.910;8.878;2022-07-22T01:33:51;100062.94;;;21.94;63.07
26823;BME280;14852;51.910;8.878;2022-07-22T01:36:17;100057.53;;;21.86;63.29
26823;BME280;14852;51.910;8.878;2022-07-22T01:38:43;100067.06;;;21.79;63.54
26823;BME280;14852;51.910;8.878;2022-07-22T01:41:09;100067.59;;;21.73;63.34
26823;BME280;14852;51.910;8.878;2022-07-22T01:43:37;100069.16;;;21.66;63.15
26823;BME280;14852;51.910;8.878;2022-07-22T01:46:04;100075.16;;;21.58;63.20
26823;BME280;14852;51.910;8.878;2022-07-22T01:48:32;100075.47;;;21.55;63.17
26823;BME280;14852;51.910;8.878;2022-07-22T01:50:58;100079.34;;;21.51;63.35
26823;BME280;14852;51.910;8.878;2022-07-22T01:53:24;100080.47;;;21.49;63.63
26823;BME280;14852;51.910;8.878;2022-07-22T01:55:51;100075.31;;;21.47;63.75
26823;BME280;14852;51.910;8.878;2022-07-22T01:58:18;100087.16;;;21.43;63.81
26823;BME280;14852;51.910;8.878;2022-07-22T02:00:45;100086.75;;;21.38;63.80
26823;BME280;14852;51.910;8.878;2022-07-22T02:03:11;100094.13;;;21.35;63.50
26823;BME280;14852;51.910;8.878;2022-07-22T02:05:37;100096.94;;;21.33;63.49
26823;BME280;14852;51.910;8.878;2022-07-22T02:08:12;100092.75;;;21.30;63.77
26823;BME280;14852;51.910;8.878;2022-07-22T02:10:57;100096.50;;;21.28;63.29
26823;BME280;14852;51.910;8.878;2022-07-22T02:13:23;100105.00;;;21.22;63.39
26823;BME280;14852;51.910;8.878;2022-07-22T02:15:49;100099.84;;;21.20;63.26
26823;BME280;14852;51.910;8.878;2022-07-22T02:18:17;100107.91;;;21.19;63.61
26823;BME280;14852;51.910;8.878;2022-07-22T02:20:44;100102.03;;;21.15;63.53
26823;BME280;14852;51.910;8.878;2022-07-22T02:23:11;100103.84;;;21.15;63.24
26823;BME280;14852;51.910;8.878;2022-07-22T02:25:39;100102.03;;;21.15;63.10
26823;BME280;14852;51.910;8.878;2022-07-22T02:28:05;100109.41;;;21.12;63.45
26823;BME280;14852;51.910;8.878;2022-07-22T02:30:31;100105.25;;;21.09;63.04
26823;BME280;14852;51.910;8.878;2022-07-22T02:32:58;100112.47;;;21.07;63.61
26823;BME280;14852;51.910;8.878;2022-07-22T02:35:24;100112.88;;;21.03;63.69
26823;BME280;14852;51.910;8.878;2022-07-22T02:37:51;100107.91;;;21.00;63.46
26823;BME280;14852;51.910;8.878;2022-07-22T02:40:17;100106.34;;;20.97;63.59
26823;BME280;14852;51.910;8.878;2022-07-22T02:42:43;100112.75;;;20.94;63.74
26823;BME280;14852;51.910;8.878;2022-07-22T02:45:09;100118.03;;;20.94;63.46
26823;BME280;14852;51.910;8.878;2022-07-22T02:47:49;100114.53;;;20.94;63.70
26823;BME280;14852;51.910;8.878;2022-07-22T02:50:16;100111.78;;;20.86;63.83
26823;BME280;14852;51.910;8.878;2022-07-22T02:52:42;100110.22;;;20.83;63.77
26823;BME280;14852;51.910;8.878;2022-07-22T02:55:10;100112.16;;;20.81;63.36
26823;BME280;14852;51.910;8.878;2022-07-22T02:57:36;100115.66;;;20.82;63.80
26823;BME280;14852;51.910;8.878;2022-07-22T03:00:03;100117.31;;;20.83;63.74
26823;BME280;14852;51.910;8.878;2022-07-22T03:02:33;100119.00;;;20.84;63.47
26823;BME280;14852;51.910;8.878;2022-07-22T03:04:59;100118.16;;;20.83;63.93
26823;BME280;14852;51.910;8.878;2022-07-22T03:07:25;100113.84;;;20.82;63.41
26823;BME280;14852;51.910;8.878;2022-07-22T03:09:51;100121.19;;;20.79;63.84
26823;BME280;14852;51.910;8.878;2022-07-22T03:12:16;100125.81;;;20.77;63.89
26823;BME280;14852;51.910;8.878;2022-07-22T03:14:42;100121.47;;;20.76;63.48
26823;BME280;14852;51.910;8.878;2022-07-22T03:17:08;100130.78;;;20.70;63.53
26823;BME280;14852;51.910;8.878;2022-07-22T03:19:36;100135.34;;;20.68;64.01
26823;BME280;14852;51.910;8.878;2022-07-22T03:22:02;100129.38;;;20.66;63.66
26823;BME280;14852;51.910;8.878;2022-07-22T03:24:28;100135.78;;;20.64;63.48
26823;BME280;14852;51.910;8.878;2022-07-22T03:26:55;100133.25;;;20.62;63.68
26823;BME280;14852;51.910;8.878;2022-07-22T03:29:21;100132.56;;;20.60;63.84
26823;BME280;14852;51.910;8.878;2022-07-22T03:31:47;100132.69;;;20.58;63.85
26823;BME280;14852;51.910;8.878;2022-07-22T03:34:13;100133.53;;;20.59;63.83
26823;BME280;14852;51.910;8.878;2022-07-22T03:36:47;100135.47;;;20.57;63.39
26823;BME280;14852;51.910;8.878;2022-07-22T03:39:13;100136.84;;;20.51;63.75
26823;BME280;14852;51.910;8.878;2022-07-22T03:41:39;100142.13;;;20.51;63.62
26823;BME280;14852;51.910;8.878;2022-07-22T03:44:05;100139.63;;;20.50;63.31
26823;BME280;14852;51.910;8.878;2022-07-22T03:46:31;100138.78;;;20.49;63.57
26823;BME280;14852;51.910;8.878;2022-07-22T03:48:57;100146.69;;;20.49;63.53
26823;BME280;14852;51.910;8.878;2022-07-22T03:51:23;100146.25;;;20.44;63.24
26823;BME280;14852;51.910;8.878;2022-07-22T03:53:49;100149.03;;;20.43;63.47
26823;BME280;14852;51.910;8.878;2022-07-22T03:56:14;100150.69;;;20.44;63.81
26823;BME280;14852;51.910;8.878;2022-07-22T03:58:41;100148.34;;;20.41;63.51
26823;BME280;14852;51.910;8.878;2022-07-22T04:01:07;100145.00;;;20.39;63.26
26823;BME280;14852;51.910;8.878;2022-07-22T04:03:32;100148.59;;;20.38;63.23
26823;BME280;14852;51.910;8.878;2022-07-22T04:06:08;100153.03;;;20.37;63.76
26823;BME280;14852;51.910;8.878;2022-07-22T04:08:45;100158.91;;;20.41;63.43
26823;BME280;14852;51.910;8.878;2022-07-22T04:11:12;100154.31;;;20.43;63.55
26823;BME280;14852;51.910;8.878;2022-07-22T04:13:39;100161.53;;;20.41;63.08
26823;BME280;14852;51.910;8.878;2022-07-22T04:16:05;100157.09;;;20.41;63.31
26823;BME280;14852;51.910;8.878;2022-07-22T04:18:32;100157.94;;;20.42;63.34
26823;BME280;14852;51.910;8.878;2022-07-22T04:20:59;100155.97;;;20.44;63.31
26823;BME280;14852;51.910;8.878;2022-07-22T04:23:44;100161.84;;;20.47;63.22
26823;BME280;14852;51.910;8.878;2022-07-22T04:26:15;100163.50;;;20.48;63.05
26823;BME280;14852;51.910;8.878;2022-07-22T04:28:41;100170.47;;;20.49;63.01
26823;BME280;14852;51.910;8.878;2022-07-22T04:31:06;100170.47;;;20.49;63.21
26823;BME280;14852;51.910;8.878;2022-07-22T04:33:35;100163.50;;;20.48;63.27
26823;BME280;14852;51.910;8.878;2022-07-22T04:36:02;100168.66;;;20.50;63.11
26823;BME280;14852;51.910;8.878;2022-07-22T04:38:27;100166.28;;;20.47;63.10
26823;BME280;14852;51.910;8.878;2022-07-22T04:41:04;100172.41;;;20.47;63.22
26823;BME280;14852;51.910;8.878;2022-07-22T04:43:31;100167.25;;;20.46;63.36
26823;BME280;14852;51.910;8.878;2022-07-22T04:45:57;100165.56;;;20.45;63.30
26823;BME280;14852;51.910;8.878;2022-07-22T04:48:26;100167.38;;;20.44;62.84
26823;BME280;14852;51.910;8.878;2022-07-22T04:50:53;100163.75;;;20.45;63.08
26823;BME280;14852;51.910;8.878;2022-07-22T04:53:18;100170.59;;;20.48;63.35
26823;BME280;14852;51.910;8.878;2022-07-22T04:55:46;100170.47;;;20.49;62.85
26823;BME280;14852;51.910;8.878;2022-07-22T04:58:12;100169.63;;;20.49;62.88
26823;BME280;14852;51.910;8.878;2022-07-22T05:00:38;100175.59;;;20.51;63.30
26823;BME280;14852;51.910;8.878;2022-07-22T05:03:04;100174.91;;;20.49;62.67
26823;BME280;14852;51.910;8.878;2022-07-22T05:05:30;100176.84;;;20.47;63.18
26823;BME280;14852;51.910;8.878;2022-07-22T05:07:57;100176.97;;;20.45;63.16
26823;BME280;14852;51.910;8.878;2022-07-22T05:10:24;100178.63;;;20.46;62.74
26823;BME280;14852;51.910;8.878;2022-07-22T05:12:50;100178.38;;;20.49;62.75
26823;BME280;14852;51.910;8.878;2022-07-22T05:15:16;100174.66;;;20.52;62.98
26823;BME280;14852;51.910;8.878;2022-07-22T05:17:43;100169.22;;;20.53;62.74
26823;BME280;14852;51.910;8.878;2022-07-22T05:20:22;100177.16;;;20.53;62.77
26823;BME280;14852;51.910;8.878;2022-07-22T05:22:48;100179.78;;;20.53;62.82
26823;BME280;14852;51.910;8.878;2022-07-22T05:25:19;100176.16;;;20.54;62.78
26823;BME280;14852;51.910;8.878;2022-07-22T05:27:53;100173.97;;;20.59;62.61
26823;BME280;14852;51.910;8.878;2022-07-22T05:30:24;100177.31;;;20.62;62.80
26823;BME280;14852;51.910;8.878;2022-07-22T05:32:50;100178.16;;;20.62;63.06
26823;BME280;14852;51.910;8.878;2022-07-22T05:35:22;100179.69;;;20.65;62.32
26823;BME280;14852;51.910;8.878;2022-07-22T05:37:48;100181.22;;;20.67;62.94
26823;BME280;14852;51.910;8.878;2022-07-22T05:40:13;100179.28;;;20.69;62.83
26823;BME280;14852;51.910;8.878;2022-07-22T05:42:39;100183.59;;;20.70;62.45
26823;BME280;14852;51.910;8.878;2022-07-22T05:45:06;100185.38;;;20.70;62.42
26823;BME280;14852;51.910;8.878;2022-07-22T05:47:32;100181.78;;;20.71;62.60
26823;BME280;14852;51.910;8.878;2022-07-22T05:49:57;100187.78;;;20.73;62.77
26823;BME280;14852;51.910;8.878;2022-07-22T05:52:23;100184.28;;;20.72;62.52
26823;BME280;14852;51.910;8.878;2022-07-22T05:54:49;100186.09;;;20.72;62.61
26823;BME280;14852;51.910;8.878;2022-07-22T05:57:15;100186.81;;;20.74;62.36
26823;BME280;14852;51.910;8.878;2022-07-22T05:59:42;100181.38;;;20.75;62.32
26823;BME280;14852;51.910;8.878;2022-07-22T06:02:08;100191.66;;;20.78;62.45
26823;BME280;14852;51.910;8.878;2022-07-22T06:04:47;100185.28;;;20.81;61.94
26823;BME280;14852;51.910;8.878;2022-07-22T06:07:15;100193.91;;;20.83;62.05
26823;BME280;14852;51.910;8.878;2022-07-22T06:09:43;100192.94;;;20.84;61.97
26823;BME280;14852;51.910;8.878;2022-07-22T06:12:11;100191.13;;;20.84;62.11
26823;BME280;14852;51.910;8.878;2022-07-22T06:14:37;100190.16;;;20.85;62.06
26823;BME280;14852;51.910;8.878;2022-07-22T06:17:04;100191.84;;;20.86;61.97
26823;BME280;14852;51.910;8.878;2022-07-22T06:19:30;100193.66;;;20.86;61.77
26823;BME280;14852;51.910;8.878;2022-07-22T06:21:56;100198.94;;;20.86;61.77
26823;BME280;14852;51.910;8.878;2022-07-22T06:24:23;100202.41;;;20.86;61.80
26823;BME280;14852;51.910;8.878;2022-07-22T06:26:50;100196.28;;;20.86;62.02
26823;BME280;14852;51.910;8.878;2022-07-22T06:29:16;100197.00;;;20.88;61.81
26823;BME280;14852;51.910;8.878;2022-07-22T06:31:42;100198.38;;;20.92;61.82
26823;BME280;14852;51.910;8.878;2022-07-22T06:34:08;100207.00;;;20.94;61.58
26823;BME280;14852;51.910;8.878;2022-07-22T06:36:49;100213.53;;;20.90;61.75
26823;BME280;14852;51.910;8.878;2022-07-22T06:39:15;100211.00;;;20.88;62.09
26823;BME280;14852;51.910;8.878;2022-07-22T06:41:47;100208.94;;;20.92;61.98
26823;BME280;14852;51.910;8.878;2022-07-22T06:44:45;100217.56;;;20.94;61.87
26823;BME280;14852;51.910;8.878;2022-07-22T06:47:27;100222.00;;;20.93;61.43
26823;BME280;14852;51.910;8.878;2022-07-22T06:49:53;100220.91;;;20.96;61.81
26823;BME280;14852;51.910;8.878;2022-07-22T06:52:19;100219.25;;;20.95;61.50
26823;BME280;14852;51.910;8.878;2022-07-22T06:54:45;100214.81;;;20.95;61.43
26823;BME280;14852;51.910;8.878;2022-07-22T06:57:16;100214.94;;;20.94;61.75
26823;BME280;14852;51.910;8.878;2022-07-22T06:59:42;100214.09;;;20.93;61.33
26823;BME280;14852;51.910;8.878;2022-07-22T07:02:09;100213.97;;;20.95;61.70
26823;BME280;14852;51.910;8.878;2022-07-22T07:04:35;100212.56;;;21.01;61.51
26823;BME280;14852;51.910;8.878;2022-07-22T07:07:01;100210.63;;;21.03;61.00
26823;BME280;14852;51.910;8.878;2022-07-22T07:09:30;100209.94;;;21.01;60.84
26823;BME280;14852;51.910;8.878;2022-07-22T07:12:04;100208.28;;;21.00;61.38
26823;BME280;14852;51.910;8.878;2022-07-22T07:14:48;100211.31;;;20.95;61.15
26823;BME280;14852;51.910;8.878;2022-07-22T07:17:14;100221.06;;;20.94;61.44
26823;BME280;14852;51.910;8.878;2022-07-22T07:19:41;100210.22;;;20.98;61.49
26823;BME280;14852;51.910;8.878;2022-07-22T07:22:07;100213.56;;;21.00;61.26
26823;BME280;14852;51.910;8.878;2022-07-22T07:24:33;100209.66;;;21.04;60.89
26823;BME280;14852;51.910;8.878;2022-07-22T07:26:59;100204.81;;;21.09;61.20
26823;BME280;14852;51.910;8.878;2022-07-22T07:29:25;100209.69;;;21.13;60.79
26823;BME280;14852;51.910;8.878;2022-07-22T07:31:52;100207.50;;;21.18;60.80
26823;BME280;14852;51.910;8.878;2022-07-22T07:34:18;100199.00;;;21.24;60.56
26823;BME280;14852;51.910;8.878;2022-07-22T07:36:43;100211.69;;;21.30;60.56
26823;BME280;14852;51.910;8.878;2022-07-22T07:39:12;100205.44;;;21.31;60.44
26823;BME280;14852;51.910;8.878;2022-07-22T07:41:39;100202.66;;;21.33;60.59
26823;BME280;14852;51.910;8.878;2022-07-22T07:44:06;100204.88;;;21.38;60.37
26823;BME280;14852;51.910;8.878;2022-07-22T07:46:32;100199.59;;;21.38;60.69
26823;BME280;14852;51.910;8.878;2022-07-22T07:48:58;100196.66;;;21.41;60.52
26823;BME280;14852;51.910;8.878;2022-07-22T07:51:24;100196.66;;;21.50;60.10
26823;BME280;14852;51.910;8.878;2022-07-22T07:53:49;100193.03;;;21.61;60.22
26823;BME280;14852;51.910;8.878;2022-07-22T07:56:16;100202.09;;;21.68;59.72
26823;BME280;14852;51.910;8.878;2022-07-22T07:58:42;100200.69;;;21.74;60.20
26823;BME280;14852;51.910;8.878;2022-07-22T08:01:09;100196.66;;;21.79;59.81
26823;BME280;14852;51.910;8.878;2022-07-22T08:03:35;100196.09;;;21.85;59.56
26823;BME280;14852;51.910;8.878;2022-07-22T08:06:02;100197.03;;;21.94;59.53
26823;BME280;14852;51.910;8.878;2022-07-22T08:08:29;100198.44;;;21.98;59.88
26823;BME280;14852;51.910;8.878;2022-07-22T08:10:56;100202.88;;;21.97;59.57
26823;BME280;14852;51.910;8.878;2022-07-22T08:13:31;100201.81;;;22.00;59.71
26823;BME280;14852;51.910;8.878;2022-07-22T08:16:23;100195.94;;;22.06;59.29
26823;BME280;14852;51.910;8.878;2022-07-22T08:18:49;100195.78;;;22.08;59.27
26823;BME280;14852;51.910;8.878;2022-07-22T08:21:15;100202.75;;;22.09;59.39
26823;BME280;14852;51.910;8.878;2022-07-22T08:23:51;100204.28;;;22.11;59.38
26823;BME280;14852;51.910;8.878;2022-07-22T08:26:18;100192.44;;;22.15;59.40
26823;BME280;14852;51.910;8.878;2022-07-22T08:28:44;100195.19;;;22.23;58.90
26823;BME280;14852;51.910;8.878;2022-07-22T08:31:10;100188.75;;;22.35;58.66
26823;BME280;14852;51.910;8.878;2022-07-22T08:33:36;100192.56;;;22.51;58.69
26823;BME280;14852;51.910;8.878;2022-07-22T08:36:03;100189.28;;;22.76;58.27
26823;BME280;14852;51.910;8.878;2022-07-22T08:38:30;100187.09;;;23.34;57.65
26823;BME280;14852;51.910;8.878;2022-07-22T08:40:56;100185.03;;;23.81;56.25
26823;BME280;14852;51.910;8.878;2022-07-22T08:43:24;100175.03;;;24.53;55.47
26823;BME280;14852;51.910;8.878;2022-07-22T08:45:50;100170.44;;;25.30;53.24
26823;BME280;14852;51.910;8.878;2022-07-22T08:48:16;100174.75;;;25.55;52.92
26823;BME280;14852;51.910;8.878;2022-07-22T08:51:03;100161.47;;;25.47;52.36
26823;BME280;14852;51.910;8.878;2022-07-22T08:53:51;100172.94;;;25.31;53.68
26823;BME280;14852;51.910;8.878;2022-07-22T08:56:17;100180.22;;;25.13;54.19
26823;BME280;14852;51.910;8.878;2022-07-22T08:58:43;100184.59;;;24.80;54.37
26823;BME280;14852;51.910;8.878;2022-07-22T09:01:12;100181.69;;;24.57;54.67
26823;BME280;14852;51.910;8.878;2022-07-22T09:03:49;100189.94;;;24.46;55.71
26823;BME280;14852;51.910;8.878;2022-07-22T09:06:20;100196.59;;;24.24;56.79
26823;BME280;14852;51.910;8.878;2022-07-22T09:09:00;100194.84;;;23.89;56.82
26823;BME280;14852;51.910;8.878;2022-07-22T09:11:44;100188.91;;;23.69;56.98
26823;BME280;14852;51.910;8.878;2022-07-22T09:14:10;100197.16;;;23.66;56.88
26823;BME280;14852;51.910;8.878;2022-07-22T09:16:48;100194.38;;;23.68;56.34
26823;BME280;14852;51.910;8.878;2022-07-22T09:19:38;100191.03;;;23.66;56.11
26823;BME280;14852;51.910;8.878;2022-07-22T09:22:44;100195.00;;;23.62;56.42
26823;BME280;14852;51.910;8.878;2022-07-22T09:25:37;100191.84;;;23.48;56.59
26823;BME280;14852;51.910;8.878;2022-07-22T09:28:23;100186.94;;;23.36;56.34
26823;BME280;14852;51.910;8.878;2022-07-22T09:31:24;100199.81;;;23.31;56.45
26823;BME280;14852;51.910;8.878;2022-07-22T09:33:53;100188.81;;;23.26;56.55
26823;BME280;14852;51.910;8.878;2022-07-22T09:36:25;100194.81;;;23.45;56.29
26823;BME280;14852;51.910;8.878;2022-07-22T09:38:53;100203.31;;;23.67;55.68
26823;BME280;14852;51.910;8.878;2022-07-22T09:41:20;100204.03;;;23.77;55.41
26823;BME280;14852;51.910;8.878;2022-07-22T09:43:46;100206.34;;;23.72;55.56
26823;BME280;14852;51.910;8.878;2022-07-22T09:46:13;100209.78;;;23.64;55.85
26823;BME280;14852;51.910;8.878;2022-07-22T09:49:09;100207.03;;;23.56;56.17
26823;BME280;14852;51.910;8.878;2022-07-22T09:51:47;100206.72;;;23.41;56.21
26823;BME280;14852;51.910;8.878;2022-07-22T09:54:23;100207.09;;;23.29;56.98
26823;BME280;14852;51.910;8.878;2022-07-22T09:56:50;100213.81;;;23.23;56.94
26823;BME280;14852;51.910;8.878;2022-07-22T09:59:17;100220.38;;;23.19;57.01
26823;BME280;14852;51.910;8.878;2022-07-22T10:01:55;100212.91;;;23.15;56.66
26823;BME280;14852;51.910;8.878;2022-07-22T10:04:24;100208.59;;;23.14;57.09
26823;BME280;14852;51.910;8.878;2022-07-22T10:06:51;100215.09;;;23.19;56.89
26823;BME280;14852;51.910;8.878;2022-07-22T10:09:21;100216.75;;;23.20;56.91
26823;BME280;14852;51.910;8.878;2022-07-22T10:11:48;100209.66;;;23.21;56.92
26823;BME280;14852;51.910;8.878;2022-07-22T10:14:17;100209.78;;;23.19;56.62
26823;BME280;14852;51.910;8.878;2022-07-22T10:16:43;100208.59;;;23.14;57.18
26823;BME280;14852;51.910;8.878;2022-07-22T10:19:10;100213.06;;;23.13;57.17
26823;BME280;14852;51.910;8.878;2022-07-22T10:21:37;100200.94;;;23.10;57.18
26823;BME280;14852;51.910;8.878;2022-07-22T10:24:15;100197.44;;;23.10;56.86
26823;BME280;14852;51.910;8.878;2022-07-22T10:26:53;100194.94;;;23.08;57.19
26823;BME280;14852;51.910;8.878;2022-07-22T10:29:38;100207.06;;;23.11;57.07
26823;BME280;14852;51.910;8.878;2022-07-22T10:37:39;100192.84;;;23.47;56.81
26823;BME280;14852;51.910;8.878;2022-07-22T10:40:18;100200.16;;;23.63;56.30
26823;BME280;14852;51.910;8.878;2022-07-22T10:45:52;100198.72;;;23.95;55.68
26823;BME280;14852;51.910;8.878;2022-07-22T10:51:13;100203.91;;;24.22;55.29
26823;BME280;14852;51.910;8.878;2022-07-22T10:53:46;100196.53;;;24.34;54.48
26823;BME280;14852;51.910;8.878;2022-07-22T10:56:28;100194.91;;;24.49;55.12
26823;BME280;14852;51.910;8.878;2022-07-22T10:59:14;100197.63;;;24.57;54.60
26823;BME280;14852;51.910;8.878;2022-07-22T11:01:44;100196.63;;;24.58;54.57
26823;BME280;14852;51.910;8.878;2022-07-22T11:04:25;100198.13;;;24.61;54.51
26823;BME280;14852;51.910;8.878;2022-07-22T11:06:54;100201.56;;;24.45;54.55
26823;BME280;14852;51.910;8.878;2022-07-22T11:09:30;100192.66;;;24.28;55.09
26823;BME280;14852;51.910;8.878;2022-07-22T11:11:57;100194.81;;;24.07;54.90
26823;BME280;14852;51.910;8.878;2022-07-22T11:14:30;100197.88;;;23.94;55.80
26823;BME280;14852;51.910;8.878;2022-07-22T11:17:03;100191.00;;;23.83;55.98
26823;BME280;14852;51.910;8.878;2022-07-22T11:19:30;100197.25;;;23.74;55.72
26823;BME280;14852;51.910;8.878;2022-07-22T11:22:11;100197.41;;;23.73;56.07
26823;BME280;14852;51.910;8.878;2022-07-22T11:24:40;100194.75;;;23.73;55.65
26823;BME280;14852;51.910;8.878;2022-07-22T11:27:14;100192.25;;;23.71;55.80
26823;BME280;14852;51.910;8.878;2022-07-22T11:29:40;100190.56;;;23.70;55.64
26823;BME280;14852;51.910;8.878;2022-07-22T11:32:12;100190.97;;;23.75;55.06
26823;BME280;14852;51.910;8.878;2022-07-22T11:34:40;100187.97;;;23.78;55.32
26823;BME280;14852;51.910;8.878;2022-07-22T11:37:13;100192.53;;;23.86;54.76
26823;BME280;14852;51.910;8.878;2022-07-22T11:39:39;100181.97;;;23.94;54.79
26823;BME280;14852;51.910;8.878;2022-07-22T11:42:05;100193.94;;;23.98;54.50
26823;BME280;14852;51.910;8.878;2022-07-22T11:44:34;100188.31;;;24.01;54.66
26823;BME280;14852;51.910;8.878;2022-07-22T11:47:00;100180.88;;;24.05;54.41
26823;BME280;14852;51.910;8.878;2022-07-22T11:49:29;100177.91;;;24.08;54.59
26823;BME280;14852;51.910;8.878;2022-07-22T11:51:55;100179.06;;;24.05;54.79
26823;BME280;14852;51.910;8.878;2022-07-22T11:54:21;100179.59;;;24.09;54.37
26823;BME280;14852;51.910;8.878;2022-07-22T11:56:48;100175.97;;;24.18;54.24
26823;BME280;14852;51.910;8.878;2022-07-22T11:59:16;100174.91;;;24.29;53.57
26823;BME280;14852;51.910;8.878;2022-07-22T12:01:47;100172.44;;;24.35;53.52
26823;BME280;14852;51.910;8.878;2022-07-22T12:04:18;100165.97;;;24.38;53.42
26823;BME280;14852;51.910;8.878;2022-07-22T12:06:45;100163.84;;;24.41;53.43
26823;BME280;14852;51.910;8.878;2022-07-22T12:09:21;100166.34;;;24.43;53.39
26823;BME280;14852;51.910;8.878;2022-07-22T12:11:50;100159.84;;;24.37;53.61
26823;BME280;14852;51.910;8.878;2022-07-22T12:14:22;100162.16;;;24.32;53.93
26823;BME280;14852;51.910;8.878;2022-07-22T12:17:06;100162.28;;;24.23;54.03
26823;BME280;14852;51.910;8.878;2022-07-22T12:19:36;100165.97;;;24.12;54.07
26823;BME280;14852;51.910;8.878;2022-07-22T12:22:11;100162.13;;;24.06;54.14
26823;BME280;14852;51.910;8.878;2022-07-22T12:25:01;100165.78;;;24.05;53.91
26823;BME280;14852;51.910;8.878;2022-07-22T12:27:27;100165.41;;;24.00;53.96
26823;BME280;14852;51.910;8.878;2022-07-22T12:29:53;100170.06;;;23.98;53.91
26823;BME280;14852;51.910;8.878;2022-07-22T12:37:32;100168.97;;;24.09;53.10
26823;BME280;14852;51.910;8.878;2022-07-22T12:40:10;100168.97;;;24.09;53.65
26823;BME280;14852;51.910;8.878;2022-07-22T12:42:46;100164.00;;;24.14;53.10
26823;BME280;14852;51.910;8.878;2022-07-22T12:45:18;100176.66;;;24.20;53.04
26823;BME280;14852;51.910;8.878;2022-07-22T12:50:52;100168.38;;;24.23;53.30
26823;BME280;14852;51.910;8.878;2022-07-22T12:53:19;100169.69;;;24.19;52.70
26823;BME280;14852;51.910;8.878;2022-07-22T12:58:14;100154.97;;;24.25;53.00
26823;BME280;14852;51.910;8.878;2022-07-22T13:00:47;100160.13;;;24.26;52.65
26823;BME280;14852;51.910;8.878;2022-07-22T13:03:14;100161.25;;;24.24;52.65
26823;BME280;14852;51.910;8.878;2022-07-22T13:05:40;100154.88;;;24.16;52.57
26823;BME280;14852;51.910;8.878;2022-07-22T13:08:06;100150.72;;;24.14;52.81
26823;BME280;14852;51.910;8.878;2022-07-22T13:10:33;100156.38;;;24.11;52.25
26823;BME280;14852;51.910;8.878;2022-07-22T13:12:58;100152.69;;;24.12;52.52
26823;BME280;14852;51.910;8.878;2022-07-22T13:15:24;100152.22;;;24.16;51.88
26823;BME280;14852;51.910;8.878;2022-07-22T13:17:51;100157.38;;;24.18;51.96
26823;BME280;14852;51.910;8.878;2022-07-22T13:20:18;100155.09;;;24.23;51.66
26823;BME280;14852;51.910;8.878;2022-07-22T13:22:45;100157.31;;;24.28;52.06